Latest Weather Observations for Arlington Reef

IDQ60801

Issued at 8:02 pm EST Wednesday 7 December 2016 (issued every 30 minutes, with the page automatically refreshed every 10 minutes)

About weather observations | Map of weather stations | Latest weather observations for QLD | Other Formats
Station Details ID: 200879 Name: ARLINGTON REEF Lat: -16.72 Lon: 146.11 Height: 0.0 m
Data from the previous 72 hours. | See also: Recent months at Arlington Reef
Date/Time
EST
Temp
°C
App
Temp
°C
Dew
Point
°C
Rel
Hum
%
Delta-T
°C
Wind Press
QNH
hPa
Press
MSL
hPa
Rain since
9am
mm
Dir  Spd
km/h
Gust
km/h
Spd
kts
Gust
kts
07/08:00pm - - - - - SSE 24 28 13 15 1011.0 1011.0 -
07/07:30pm - - - - - SSE 24 30 13 16 1011.1 1011.1 -
07/07:00pm - - - - - SSE 26 30 14 16 1010.8 1010.8 -
07/06:30pm - - - - - SSE 26 30 14 16 1010.9 1010.9 -
07/06:00pm - - - - - SSE 26 30 14 16 1010.8 1010.8 -
07/05:30pm - - - - - SSE 26 30 14 16 1010.5 1010.5 -
07/05:00pm - - - - - SE 24 26 13 14 1010.2 1010.2 -
07/04:30pm - - - - - SE 22 26 12 14 1010.1 1010.1 -
07/04:00pm - - - - - SE 22 26 12 14 1010.2 1010.2 -
07/03:30pm - - - - - ESE 26 32 14 17 1010.3 1010.3 -
07/03:00pm - - - - - SE 26 28 14 15 1010.5 1010.5 -
07/02:30pm - - - - - SSE 24 28 13 15 1010.7 1010.7 -
07/02:00pm - - - - - SSE 20 26 11 14 1010.8 1010.8 -
07/01:30pm - - - - - SSE 22 26 12 14 1011.1 1011.1 -
07/01:00pm - - - - - SSE 19 22 10 12 1011.3 1011.3 -
07/12:30pm - - - - - SSE 11 17 6 9 1011.7 1011.7 -
07/12:00pm - - - - - SE 17 24 9 13 1011.8 1011.8 -
07/11:30am - - - - - ESE 22 26 12 14 1012.0 1012.0 -
07/11:00am - - - - - SE 19 24 10 13 1011.9 1011.9 -
07/10:30am - - - - - SE 19 20 10 11 1012.4 1012.4 -
07/10:00am - - - - - SE 17 19 9 10 1012.4 1012.4 -
07/09:30am - - - - - SE 17 19 9 10 1012.3 1012.3 -
07/09:00am - - - - - SE 17 19 9 10 1012.0 1012.0 -
07/08:30am - - - - - SSE 13 17 7 9 1011.9 1011.9 -
07/08:00am - - - - - SSE 13 15 7 8 1011.7 1011.7 -
07/07:30am - - - - - SSE 17 20 9 11 1011.4 1011.4 -
07/07:00am - - - - - SSE 19 22 10 12 1011.6 1011.6 -
07/06:30am - - - - - SSE 15 17 8 9 1011.3 1011.3 -
07/06:00am - - - - - SE 15 17 8 9 1011.1 1011.1 -
07/05:30am - - - - - SE 15 17 8 9 1010.6 1010.6 -
07/05:00am - - - - - ESE 20 22 11 12 1010.3 1010.3 -
07/04:30am - - - - - ESE 26 30 14 16 1009.9 1009.9 -
07/04:00am - - - - - ESE 26 30 14 16 1009.7 1009.7 -
07/03:30am - - - - - ESE 24 28 13 15 1009.5 1009.5 -
07/03:00am - - - - - SE 26 32 14 17 1009.6 1009.6 -
07/02:30am - - - - - SE 24 30 13 16 1009.6 1009.6 -
07/02:00am - - - - - ESE 30 35 16 19 1009.9 1009.9 -
07/01:30am - - - - - SE 28 32 15 17 1010.0 1010.0 -
07/01:00am - - - - - ESE 32 39 17 21 1010.3 1010.3 -
07/12:30am - - - - - SE 28 32 15 17 1010.7 1010.7 -
07/12:00am - - - - - SE 32 39 17 21 1011.0 1011.0 -
 
Date/Time
EST
Temp
°C
App
Temp
°C
Dew
Point
°C
Rel
Hum
%
Delta-T
°C
Wind Press
QNH
hPa
Press
MSL
hPa
Rain since
9am
mm
Dir  Spd
km/h
Gust
km/h
Spd
kts
Gust
kts
06/11:30pm - - - - - SE 33 41 18 22 1011.4 1011.4 -
06/11:00pm - - - - - SE 35 43 19 23 1011.5 1011.5 -
06/10:30pm - - - - - SE 33 41 18 22 1011.4 1011.4 -
06/10:00pm - - - - - SE 32 35 17 19 1011.4 1011.4 -
06/09:30pm - - - - - SE 28 33 15 18 1011.3 1011.3 -
06/09:00pm - - - - - SE 28 32 15 17 1011.3 1011.3 -
06/08:30pm - - - - - SE 32 35 17 19 1011.3 1011.3 -
06/08:00pm - - - - - SE 35 41 19 22 1011.3 1011.3 -
06/07:30pm - - - - - SE 35 39 19 21 1011.0 1011.0 -
06/07:00pm - - - - - SE 35 39 19 21 1011.0 1011.0 -
06/06:30pm - - - - - SE 32 37 17 20 1010.6 1010.6 -
06/06:00pm - - - - - SE 30 35 16 19 1010.6 1010.6 -
06/05:30pm - - - - - SE 28 32 15 17 1010.3 1010.3 -
06/05:00pm - - - - - SE 28 32 15 17 1010.2 1010.2 -
06/04:30pm - - - - - SE 26 30 14 16 1010.3 1010.3 -
06/04:00pm - - - - - SE 26 30 14 16 1010.3 1010.3 -
06/03:30pm - - - - - SE 22 26 12 14 1010.4 1010.4 -
06/03:00pm - - - - - SE 20 24 11 13 1010.7 1010.7 -
06/02:30pm - - - - - SE 19 22 10 12 1011.2 1011.2 -
06/02:00pm - - - - - SSE 22 24 12 13 1011.6 1011.6 -
06/01:30pm - - - - - SE 20 24 11 13 1012.0 1012.0 -
06/01:00pm - - - - - SSE 20 24 11 13 1012.6 1012.6 -
06/12:30pm - - - - - SSE 19 22 10 12 1013.0 1013.0 -
06/12:00pm - - - - - SE 19 24 10 13 1013.4 1013.4 -
06/11:30am - - - - - SE 19 20 10 11 1013.7 1013.7 -
06/11:00am - - - - - SSE 22 26 12 14 1013.8 1013.8 -
06/10:30am - - - - - SE 19 22 10 12 1014.2 1014.2 -
06/10:00am - - - - - SE 19 22 10 12 1014.4 1014.4 -
06/09:30am - - - - - SE 19 22 10 12 1014.6 1014.6 -
06/09:00am - - - - - SE 22 26 12 14 1014.5 1014.5 -
06/08:30am - - - - - ESE 26 30 14 16 1014.3 1014.3 -
06/08:00am - - - - - SE 26 30 14 16 1014.0 1014.0 -
06/07:30am - - - - - SE 20 24 11 13 1013.8 1013.8 -
06/07:00am - - - - - SE 22 26 12 14 1013.7 1013.7 -
06/06:30am - - - - - SE 28 32 15 17 1013.3 1013.3 -
06/06:00am - - - - - SE 22 26 12 14 1013.1 1013.1 -
06/05:30am - - - - - ESE 22 28 12 15 1012.3 1012.3 -
06/05:00am - - - - - ESE 26 30 14 16 1012.0 1012.0 -
06/04:30am - - - - - SE 24 28 13 15 1011.7 1011.7 -
06/04:00am - - - - - SE 24 28 13 15 1011.5 1011.5 -
06/03:30am - - - - - ESE 26 28 14 15 1011.2 1011.2 -
06/03:00am - - - - - ESE 22 32 12 17 1011.2 1011.2 -
06/02:30am - - - - - SE 22 28 12 15 1011.1 1011.1 -
06/02:00am - - - - - SE 24 28 13 15 1011.2 1011.2 -
06/01:30am - - - - - ESE 26 32 14 17 1011.3 1011.3 -
06/01:00am - - - - - ESE 24 30 13 16 1011.6 1011.6 -
06/12:30am - - - - - ESE 30 33 16 18 1011.9 1011.9 -
06/12:00am - - - - - SE 26 30 14 16 1012.1 1012.1 -
 
Date/Time
EST
Temp
°C
App
Temp
°C
Dew
Point
°C
Rel
Hum
%
Delta-T
°C
Wind Press
QNH
hPa
Press
MSL
hPa
Rain since
9am
mm
Dir  Spd
km/h
Gust
km/h
Spd
kts
Gust
kts
05/11:30pm - - - - - SE 28 33 15 18 1012.5 1012.5 -
05/11:00pm - - - - - SE 30 35 16 19 1012.7 1012.7 -
05/10:30pm - - - - - ESE 26 30 14 16 1012.8 1012.8 -
05/10:00pm - - - - - SE 28 32 15 17 1012.9 1012.9 -
05/09:30pm - - - - - SE 28 33 15 18 1012.6 1012.6 -
05/09:00pm - - - - - SE 26 33 14 18 1012.4 1012.4 -
05/08:30pm - - - - - SE 24 28 13 15 1012.5 1012.5 -
05/08:00pm - - - - - SE 26 30 14 16 1012.4 1012.4 -
05/07:30pm - - - - - SE 28 33 15 18 1012.1 1012.1 -
05/07:00pm - - - - - SE 26 32 14 17 1012.0 1012.0 -
05/06:30pm - - - - - SE 28 32 15 17 1011.7 1011.7 -
05/06:00pm - - - - - SE 30 33 16 18 1011.7 1011.7 -
05/05:30pm - - - - - SE 26 32 14 17 1011.5 1011.5 -
05/05:00pm - - - - - SE 28 33 15 18 1011.4 1011.4 -
05/04:30pm - - - - - SE 28 32 15 17 1011.3 1011.3 -
05/04:00pm - - - - - SE 26 32 14 17 1011.3 1011.3 -
05/03:30pm - - - - - SSE 28 33 15 18 1011.3 1011.3 -
05/03:00pm - - - - - SE 26 32 14 17 1011.5 1011.5 -
05/02:30pm - - - - - SE 26 30 14 16 1011.9 1011.9 -
05/02:00pm - - - - - SE 26 30 14 16 1012.1 1012.1 -
05/01:30pm - - - - - SE 28 32 15 17 1012.3 1012.3 -
05/01:00pm - - - - - SE 28 33 15 18 1012.6 1012.6 -
05/12:30pm - - - - - SE 26 32 14 17 1013.0 1013.0 -
05/12:00pm - - - - - SE 26 30 14 16 1013.3 1013.3 -
05/11:30am - - - - - SE 24 30 13 16 1013.4 1013.4 -
05/11:00am - - - - - SE 26 32 14 17 1013.8 1013.8 -
05/10:30am - - - - - SE 26 30 14 16 1014.0 1014.0 -
05/10:00am - - - - - SE 24 28 13 15 1014.1 1014.1 -
05/09:30am - - - - - SE 28 32 15 17 1014.2 1014.2 -
05/09:00am - - - - - ESE 28 33 15 18 1014.3 1014.3 -
05/08:30am - - - - - SE 28 33 15 18 1014.2 1014.2 -
05/08:00am - - - - - SE 24 30 13 16 1014.2 1014.2 -
05/07:30am - - - - - ESE 26 30 14 16 1014.1 1014.1 -
05/07:00am - - - - - SE 28 32 15 17 1013.9 1013.9 -
05/06:30am - - - - - SE 32 35 17 19 1013.4 1013.4 -
05/06:00am - - - - - SE 28 32 15 17 1013.0 1013.0 -
05/05:30am - - - - - SE 30 35 16 19 1012.5 1012.5 -
05/05:00am - - - - - SE 30 35 16 19 1012.1 1012.1 -
05/04:30am - - - - - SE 26 30 14 16 1011.8 1011.8 -
05/04:00am - - - - - SE 28 32 15 17 1011.7 1011.7 -
05/03:30am - - - - - SE 28 33 15 18 1011.6 1011.6 -
05/03:00am - - - - - SE 26 35 14 19 1011.7 1011.7 -
05/02:30am - - - - - ESE 28 32 15 17 1011.7 1011.7 -
05/02:00am - - - - - SE 24 30 13 16 1011.8 1011.8 -
05/01:30am - - - - - ESE 26 32 14 17 1012.0 1012.0 -
05/01:00am - - - - - ESE 24 30 13 16 1012.2 1012.2 -
05/12:30am - - - - - ESE 26 30 14 16 1012.6 1012.6 -
05/12:00am - - - - - ESE 24 30 13 16 1012.9 1012.9 -
 
Date/Time
EST
Temp
°C
App
Temp
°C
Dew
Point
°C
Rel
Hum
%
Delta-T
°C
Wind Press
QNH
hPa
Press
MSL
hPa
Rain since
9am
mm
Dir  Spd
km/h
Gust
km/h
Spd
kts
Gust
kts
04/11:30pm - - - - - ESE 24 32 13 17 1013.2 1013.2 -
04/11:00pm - - - - - ESE 26 30 14 16 1013.3 1013.3 -
04/10:30pm - - - - - ESE 26 30 14 16 1013.4 1013.4 -
04/10:00pm - - - - - ESE 28 32 15 17 1013.2 1013.2 -
04/09:30pm - - - - - ESE 26 32 14 17 1013.1 1013.1 -
04/09:00pm - - - - - ESE 26 32 14 17 1012.9 1012.9 -
04/08:30pm - - - - - ESE 26 32 14 17 1012.8 1012.8 -

Other Formats:

Comma delimited format used in spreadsheet applications
http://www.bom.gov.au/fwo/IDQ60801/IDQ60801.94284.axf

JavaScript Object Notation format (JSON) in row-major order
http://www.bom.gov.au/fwo/IDQ60801/IDQ60801.94284.json